sensor_id;sensor_type;location;lat;lon;timestamp;P1;durP1;ratioP1;P2;durP2;ratioP2
55292;SDS011;41157;53.560;10.098;2023-05-07T00:02:12;10.43;;;8.57;;
55292;SDS011;41157;53.560;10.098;2023-05-07T00:04:39;12.53;;;9.37;;
55292;SDS011;41157;53.560;10.098;2023-05-07T00:07:06;12.60;;;9.17;;
55292;SDS011;41157;53.560;10.098;2023-05-07T00:09:33;10.83;;;8.60;;
55292;SDS011;41157;53.560;10.098;2023-05-07T00:12:00;12.13;;;9.40;;
55292;SDS011;41157;53.560;10.098;2023-05-07T00:14:27;11.23;;;8.63;;
55292;SDS011;41157;53.560;10.098;2023-05-07T00:16:55;10.13;;;8.90;;
55292;SDS011;41157;53.560;10.098;2023-05-07T00:19:23;11.17;;;9.67;;
55292;SDS011;41157;53.560;10.098;2023-05-07T00:21:50;14.57;;;9.60;;
55292;SDS011;41157;53.560;10.098;2023-05-07T00:24:18;12.37;;;9.17;;
55292;SDS011;41157;53.560;10.098;2023-05-07T00:26:45;11.00;;;9.30;;
55292;SDS011;41157;53.560;10.098;2023-05-07T00:29:12;12.33;;;9.03;;
55292;SDS011;41157;53.560;10.098;2023-05-07T00:31:39;10.67;;;8.87;;
55292;SDS011;41157;53.560;10.098;2023-05-07T00:34:07;11.57;;;9.10;;
55292;SDS011;41157;53.560;10.098;2023-05-07T00:36:34;14.33;;;9.73;;
55292;SDS011;41157;53.560;10.098;2023-05-07T00:39:02;11.03;;;9.10;;
55292;SDS011;41157;53.560;10.098;2023-05-07T00:41:29;12.23;;;9.43;;
55292;SDS011;41157;53.560;10.098;2023-05-07T00:43:56;12.40;;;9.37;;
55292;SDS011;41157;53.560;10.098;2023-05-07T00:46:23;11.67;;;8.90;;
55292;SDS011;41157;53.560;10.098;2023-05-07T00:48:50;12.87;;;9.80;;
55292;SDS011;41157;53.560;10.098;2023-05-07T00:51:19;14.77;;;9.07;;
55292;SDS011;41157;53.560;10.098;2023-05-07T00:53:46;15.03;;;9.37;;
55292;SDS011;41157;53.560;10.098;2023-05-07T00:56:13;10.13;;;8.73;;
55292;SDS011;41157;53.560;10.098;2023-05-07T00:58:40;12.17;;;8.87;;
55292;SDS011;41157;53.560;10.098;2023-05-07T01:01:07;10.73;;;8.33;;
55292;SDS011;41157;53.560;10.098;2023-05-07T01:03:34;11.07;;;8.63;;
55292;SDS011;41157;53.560;10.098;2023-05-07T01:06:01;11.33;;;8.50;;
55292;SDS011;41157;53.560;10.098;2023-05-07T01:08:30;10.47;;;8.47;;
55292;SDS011;41157;53.560;10.098;2023-05-07T01:10:59;10.50;;;8.37;;
55292;SDS011;41157;53.560;10.098;2023-05-07T01:13:27;9.53;;;8.53;;
55292;SDS011;41157;53.560;10.098;2023-05-07T01:15:54;11.50;;;7.80;;
55292;SDS011;41157;53.560;10.098;2023-05-07T01:18:21;9.13;;;7.73;;
55292;SDS011;41157;53.560;10.098;2023-05-07T01:20:48;9.13;;;7.67;;
55292;SDS011;41157;53.560;10.098;2023-05-07T01:23:17;10.90;;;7.90;;
55292;SDS011;41157;53.560;10.098;2023-05-07T01:25:50;9.60;;;8.13;;
55292;SDS011;41157;53.560;10.098;2023-05-07T01:28:17;8.33;;;7.43;;
55292;SDS011;41157;53.560;10.098;2023-05-07T01:30:45;8.90;;;7.73;;
55292;SDS011;41157;53.560;10.098;2023-05-07T01:33:13;8.23;;;7.43;;
55292;SDS011;41157;53.560;10.098;2023-05-07T01:35:43;8.20;;;7.10;;
55292;SDS011;41157;53.560;10.098;2023-05-07T01:38:10;9.00;;;7.80;;
55292;SDS011;41157;53.560;10.098;2023-05-07T01:40:39;8.80;;;7.63;;
55292;SDS011;41157;53.560;10.098;2023-05-07T01:43:06;10.33;;;8.43;;
55292;SDS011;41157;53.560;10.098;2023-05-07T01:45:34;12.17;;;8.27;;
55292;SDS011;41157;53.560;10.098;2023-05-07T01:48:02;14.00;;;8.10;;
55292;SDS011;41157;53.560;10.098;2023-05-07T01:50:29;9.47;;;8.33;;
55292;SDS011;41157;53.560;10.098;2023-05-07T01:52:56;13.90;;;8.17;;
55292;SDS011;41157;53.560;10.098;2023-05-07T01:55:23;10.03;;;7.50;;
55292;SDS011;41157;53.560;10.098;2023-05-07T01:57:51;11.13;;;7.60;;
55292;SDS011;41157;53.560;10.098;2023-05-07T02:00:19;9.50;;;7.40;;
55292;SDS011;41157;53.560;10.098;2023-05-07T02:02:46;8.70;;;7.57;;
55292;SDS011;41157;53.560;10.098;2023-05-07T02:05:13;8.37;;;7.47;;
55292;SDS011;41157;53.560;10.098;2023-05-07T02:07:40;9.90;;;7.27;;
55292;SDS011;41157;53.560;10.098;2023-05-07T02:10:07;11.03;;;8.00;;
55292;SDS011;41157;53.560;10.098;2023-05-07T02:12:34;8.63;;;7.43;;
55292;SDS011;41157;53.560;10.098;2023-05-07T02:15:03;8.40;;;7.10;;
55292;SDS011;41157;53.560;10.098;2023-05-07T02:17:30;8.93;;;7.10;;
55292;SDS011;41157;53.560;10.098;2023-05-07T02:19:58;9.33;;;7.63;;
55292;SDS011;41157;53.560;10.098;2023-05-07T02:22:25;8.17;;;7.00;;
55292;SDS011;41157;53.560;10.098;2023-05-07T02:24:52;11.03;;;7.03;;
55292;SDS011;41157;53.560;10.098;2023-05-07T02:27:19;8.77;;;6.77;;
55292;SDS011;41157;53.560;10.098;2023-05-07T02:29:46;11.10;;;7.40;;
55292;SDS011;41157;53.560;10.098;2023-05-07T02:32:14;8.73;;;7.30;;
55292;SDS011;41157;53.560;10.098;2023-05-07T02:34:41;7.50;;;6.70;;
55292;SDS011;41157;53.560;10.098;2023-05-07T02:37:09;10.40;;;7.27;;
55292;SDS011;41157;53.560;10.098;2023-05-07T02:39:35;7.60;;;6.60;;
55292;SDS011;41157;53.560;10.098;2023-05-07T02:42:03;9.73;;;6.70;;
55292;SDS011;41157;53.560;10.098;2023-05-07T02:44:30;9.43;;;7.13;;
55292;SDS011;41157;53.560;10.098;2023-05-07T02:46:57;9.97;;;7.70;;
55292;SDS011;41157;53.560;10.098;2023-05-07T02:49:25;10.37;;;7.60;;
55292;SDS011;41157;53.560;10.098;2023-05-07T02:51:52;9.63;;;7.10;;
55292;SDS011;41157;53.560;10.098;2023-05-07T02:54:20;12.03;;;7.73;;
55292;SDS011;41157;53.560;10.098;2023-05-07T02:56:47;10.43;;;7.53;;
55292;SDS011;41157;53.560;10.098;2023-05-07T02:59:15;10.03;;;8.27;;
55292;SDS011;41157;53.560;10.098;2023-05-07T03:01:42;10.37;;;8.27;;
55292;SDS011;41157;53.560;10.098;2023-05-07T03:04:10;10.73;;;8.20;;
55292;SDS011;41157;53.560;10.098;2023-05-07T03:06:38;9.33;;;7.70;;
55292;SDS011;41157;53.560;10.098;2023-05-07T03:09:05;13.50;;;8.10;;
55292;SDS011;41157;53.560;10.098;2023-05-07T03:11:33;9.03;;;7.57;;
55292;SDS011;41157;53.560;10.098;2023-05-07T03:14:01;11.90;;;8.17;;
55292;SDS011;41157;53.560;10.098;2023-05-07T03:16:28;9.60;;;7.73;;
55292;SDS011;41157;53.560;10.098;2023-05-07T03:18:55;9.47;;;8.37;;
55292;SDS011;41157;53.560;10.098;2023-05-07T03:21:22;9.70;;;7.97;;
55292;SDS011;41157;53.560;10.098;2023-05-07T03:23:52;11.57;;;8.63;;
55292;SDS011;41157;53.560;10.098;2023-05-07T03:26:19;10.17;;;8.53;;
55292;SDS011;41157;53.560;10.098;2023-05-07T03:28:46;10.53;;;8.43;;
55292;SDS011;41157;53.560;10.098;2023-05-07T03:31:13;11.03;;;8.27;;
55292;SDS011;41157;53.560;10.098;2023-05-07T03:33:49;10.10;;;7.93;;
55292;SDS011;41157;53.560;10.098;2023-05-07T03:36:16;11.37;;;8.70;;
55292;SDS011;41157;53.560;10.098;2023-05-07T03:38:43;9.53;;;7.80;;
55292;SDS011;41157;53.560;10.098;2023-05-07T03:41:12;10.07;;;7.90;;
55292;SDS011;41157;53.560;10.098;2023-05-07T03:43:39;9.47;;;7.73;;
55292;SDS011;41157;53.560;10.098;2023-05-07T03:46:06;8.40;;;7.57;;
55292;SDS011;41157;53.560;10.098;2023-05-07T03:48:33;7.67;;;6.87;;
55292;SDS011;41157;53.560;10.098;2023-05-07T03:51:00;9.93;;;7.40;;
55292;SDS011;41157;53.560;10.098;2023-05-07T03:53:27;11.03;;;7.73;;
55292;SDS011;41157;53.560;10.098;2023-05-07T03:55:55;9.03;;;7.97;;
55292;SDS011;41157;53.560;10.098;2023-05-07T03:58:23;9.60;;;8.27;;
55292;SDS011;41157;53.560;10.098;2023-05-07T04:00:50;9.17;;;8.00;;
55292;SDS011;41157;53.560;10.098;2023-05-07T04:03:17;9.37;;;7.80;;
55292;SDS011;41157;53.560;10.098;2023-05-07T04:05:44;12.80;;;8.27;;
55292;SDS011;41157;53.560;10.098;2023-05-07T04:08:12;11.57;;;8.80;;
55292;SDS011;41157;53.560;10.098;2023-05-07T04:10:39;11.00;;;8.33;;
55292;SDS011;41157;53.560;10.098;2023-05-07T04:13:06;10.23;;;8.30;;
55292;SDS011;41157;53.560;10.098;2023-05-07T04:15:34;10.10;;;8.13;;
55292;SDS011;41157;53.560;10.098;2023-05-07T04:18:02;11.47;;;8.97;;
55292;SDS011;41157;53.560;10.098;2023-05-07T04:20:29;9.83;;;7.80;;
55292;SDS011;41157;53.560;10.098;2023-05-07T04:22:56;8.73;;;7.83;;
55292;SDS011;41157;53.560;10.098;2023-05-07T04:25:23;9.67;;;7.30;;
55292;SDS011;41157;53.560;10.098;2023-05-07T04:27:51;9.07;;;7.37;;
55292;SDS011;41157;53.560;10.098;2023-05-07T04:30:18;10.03;;;7.30;;
55292;SDS011;41157;53.560;10.098;2023-05-07T04:32:47;11.23;;;7.40;;
55292;SDS011;41157;53.560;10.098;2023-05-07T04:35:14;8.97;;;6.13;;
55292;SDS011;41157;53.560;10.098;2023-05-07T04:37:41;7.93;;;6.27;;
55292;SDS011;41157;53.560;10.098;2023-05-07T04:40:08;9.37;;;7.13;;
55292;SDS011;41157;53.560;10.098;2023-05-07T04:42:35;8.13;;;7.07;;
55292;SDS011;41157;53.560;10.098;2023-05-07T04:45:02;8.53;;;7.03;;
55292;SDS011;41157;53.560;10.098;2023-05-07T04:47:29;7.43;;;6.33;;
55292;SDS011;41157;53.560;10.098;2023-05-07T04:49:58;8.77;;;6.93;;
55292;SDS011;41157;53.560;10.098;2023-05-07T04:52:25;9.37;;;6.77;;
55292;SDS011;41157;53.560;10.098;2023-05-07T04:54:52;8.77;;;7.00;;
55292;SDS011;41157;53.560;10.098;2023-05-07T04:57:19;9.07;;;6.70;;
55292;SDS011;41157;53.560;10.098;2023-05-07T04:59:46;8.83;;;6.90;;
55292;SDS011;41157;53.560;10.098;2023-05-07T05:02:14;7.80;;;6.57;;
55292;SDS011;41157;53.560;10.098;2023-05-07T05:04:41;8.70;;;6.60;;
55292;SDS011;41157;53.560;10.098;2023-05-07T05:07:09;8.60;;;7.17;;
55292;SDS011;41157;53.560;10.098;2023-05-07T05:09:36;8.20;;;7.20;;
55292;SDS011;41157;53.560;10.098;2023-05-07T05:12:04;9.40;;;7.07;;
55292;SDS011;41157;53.560;10.098;2023-05-07T05:14:32;8.90;;;7.30;;
55292;SDS011;41157;53.560;10.098;2023-05-07T05:16:59;8.70;;;7.13;;
55292;SDS011;41157;53.560;10.098;2023-05-07T05:19:26;8.03;;;6.57;;
55292;SDS011;41157;53.560;10.098;2023-05-07T05:21:53;9.00;;;7.40;;
55292;SDS011;41157;53.560;10.098;2023-05-07T05:24:22;10.43;;;6.87;;
55292;SDS011;41157;53.560;10.098;2023-05-07T05:26:49;8.63;;;7.33;;
55292;SDS011;41157;53.560;10.098;2023-05-07T05:29:16;10.10;;;7.40;;
55292;SDS011;41157;53.560;10.098;2023-05-07T05:31:43;8.77;;;7.43;;
55292;SDS011;41157;53.560;10.098;2023-05-07T05:34:10;10.10;;;7.80;;
55292;SDS011;41157;53.560;10.098;2023-05-07T05:36:37;8.63;;;7.07;;
55292;SDS011;41157;53.560;10.098;2023-05-07T05:39:04;8.00;;;7.20;;
55292;SDS011;41157;53.560;10.098;2023-05-07T05:41:32;8.10;;;6.90;;
55292;SDS011;41157;53.560;10.098;2023-05-07T05:43:59;8.47;;;7.50;;
55292;SDS011;41157;53.560;10.098;2023-05-07T05:46:26;9.70;;;7.90;;
55292;SDS011;41157;53.560;10.098;2023-05-07T05:48:53;8.23;;;7.27;;
55292;SDS011;41157;53.560;10.098;2023-05-07T05:51:21;9.23;;;7.23;;
55292;SDS011;41157;53.560;10.098;2023-05-07T05:53:48;9.13;;;7.03;;
55292;SDS011;41157;53.560;10.098;2023-05-07T05:56:15;9.90;;;7.43;;
55292;SDS011;41157;53.560;10.098;2023-05-07T05:58:43;9.50;;;7.43;;
55292;SDS011;41157;53.560;10.098;2023-05-07T06:01:10;8.83;;;6.97;;
55292;SDS011;41157;53.560;10.098;2023-05-07T06:03:37;8.33;;;7.07;;
55292;SDS011;41157;53.560;10.098;2023-05-07T06:06:04;7.87;;;6.37;;
55292;SDS011;41157;53.560;10.098;2023-05-07T06:08:31;7.60;;;6.80;;
55292;SDS011;41157;53.560;10.098;2023-05-07T06:10:58;7.80;;;7.00;;
55292;SDS011;41157;53.560;10.098;2023-05-07T06:13:25;7.23;;;6.53;;
55292;SDS011;41157;53.560;10.098;2023-05-07T06:15:54;10.67;;;7.00;;
55292;SDS011;41157;53.560;10.098;2023-05-07T06:18:21;8.53;;;6.93;;
55292;SDS011;41157;53.560;10.098;2023-05-07T06:20:48;7.83;;;6.50;;
55292;SDS011;41157;53.560;10.098;2023-05-07T06:23:15;10.60;;;6.50;;
55292;SDS011;41157;53.560;10.098;2023-05-07T06:25:45;8.53;;;6.93;;
55292;SDS011;41157;53.560;10.098;2023-05-07T06:28:12;7.63;;;6.53;;
55292;SDS011;41157;53.560;10.098;2023-05-07T06:30:39;8.37;;;6.83;;
55292;SDS011;41157;53.560;10.098;2023-05-07T06:33:08;8.57;;;6.47;;
55292;SDS011;41157;53.560;10.098;2023-05-07T06:35:35;12.83;;;7.00;;
55292;SDS011;41157;53.560;10.098;2023-05-07T06:38:02;7.90;;;6.30;;
55292;SDS011;41157;53.560;10.098;2023-05-07T06:40:29;8.30;;;6.50;;
55292;SDS011;41157;53.560;10.098;2023-05-07T06:42:56;8.43;;;6.50;;
55292;SDS011;41157;53.560;10.098;2023-05-07T06:45:23;6.50;;;5.90;;
55292;SDS011;41157;53.560;10.098;2023-05-07T06:47:50;7.10;;;6.27;;
55292;SDS011;41157;53.560;10.098;2023-05-07T06:50:18;6.97;;;6.03;;
55292;SDS011;41157;53.560;10.098;2023-05-07T06:52:46;7.33;;;6.10;;
55292;SDS011;41157;53.560;10.098;2023-05-07T06:55:13;7.33;;;6.20;;
55292;SDS011;41157;53.560;10.098;2023-05-07T06:57:40;6.53;;;5.83;;
55292;SDS011;41157;53.560;10.098;2023-05-07T07:00:07;7.33;;;6.00;;
55292;SDS011;41157;53.560;10.098;2023-05-07T07:02:36;9.03;;;6.40;;
55292;SDS011;41157;53.560;10.098;2023-05-07T07:05:03;49.70;;;12.40;;
55292;SDS011;41157;53.560;10.098;2023-05-07T07:07:32;7.60;;;5.80;;
55292;SDS011;41157;53.560;10.098;2023-05-07T07:09:59;7.23;;;6.23;;
55292;SDS011;41157;53.560;10.098;2023-05-07T07:12:26;6.53;;;5.27;;
55292;SDS011;41157;53.560;10.098;2023-05-07T07:14:53;7.97;;;6.00;;
55292;SDS011;41157;53.560;10.098;2023-05-07T07:17:20;6.10;;;4.87;;
55292;SDS011;41157;53.560;10.098;2023-05-07T07:19:47;6.70;;;5.30;;
55292;SDS011;41157;53.560;10.098;2023-05-07T07:22:15;47.03;;;10.93;;
55292;SDS011;41157;53.560;10.098;2023-05-07T07:24:43;6.20;;;5.30;;
55292;SDS011;41157;53.560;10.098;2023-05-07T07:27:10;8.20;;;5.63;;
55292;SDS011;41157;53.560;10.098;2023-05-07T07:29:37;5.67;;;5.10;;
55292;SDS011;41157;53.560;10.098;2023-05-07T07:32:04;5.67;;;5.07;;
55292;SDS011;41157;53.560;10.098;2023-05-07T07:34:31;6.60;;;4.97;;
55292;SDS011;41157;53.560;10.098;2023-05-07T07:36:58;25.43;;;8.10;;
55292;SDS011;41157;53.560;10.098;2023-05-07T07:39:30;5.53;;;4.70;;
55292;SDS011;41157;53.560;10.098;2023-05-07T07:41:58;5.13;;;4.47;;
55292;SDS011;41157;53.560;10.098;2023-05-07T07:44:26;6.87;;;5.33;;
55292;SDS011;41157;53.560;10.098;2023-05-07T07:46:53;6.37;;;4.80;;
55292;SDS011;41157;53.560;10.098;2023-05-07T07:49:20;5.97;;;5.10;;
55292;SDS011;41157;53.560;10.098;2023-05-07T07:51:47;6.63;;;4.90;;
55292;SDS011;41157;53.560;10.098;2023-05-07T07:54:14;7.80;;;4.63;;
55292;SDS011;41157;53.560;10.098;2023-05-07T07:56:41;7.13;;;5.40;;
55292;SDS011;41157;53.560;10.098;2023-05-07T07:59:09;8.13;;;4.43;;
55292;SDS011;41157;53.560;10.098;2023-05-07T08:01:38;7.50;;;5.40;;
55292;SDS011;41157;53.560;10.098;2023-05-07T08:04:05;7.77;;;4.97;;
55292;SDS011;41157;53.560;10.098;2023-05-07T08:06:33;6.13;;;4.50;;
55292;SDS011;41157;53.560;10.098;2023-05-07T08:09:00;5.00;;;4.50;;
55292;SDS011;41157;53.560;10.098;2023-05-07T08:11:27;6.83;;;5.13;;
55292;SDS011;41157;53.560;10.098;2023-05-07T08:13:54;10.50;;;5.40;;
55292;SDS011;41157;53.560;10.098;2023-05-07T08:16:23;6.20;;;5.40;;
55292;SDS011;41157;53.560;10.098;2023-05-07T08:18:50;5.57;;;4.93;;
55292;SDS011;41157;53.560;10.098;2023-05-07T08:21:17;5.67;;;5.07;;
55292;SDS011;41157;53.560;10.098;2023-05-07T08:23:45;5.03;;;4.53;;
55292;SDS011;41157;53.560;10.098;2023-05-07T08:26:12;6.83;;;4.97;;
55292;SDS011;41157;53.560;10.098;2023-05-07T08:28:39;6.87;;;5.47;;
55292;SDS011;41157;53.560;10.098;2023-05-07T08:31:06;5.77;;;4.93;;
55292;SDS011;41157;53.560;10.098;2023-05-07T08:33:34;6.93;;;5.07;;
55292;SDS011;41157;53.560;10.098;2023-05-07T08:36:03;5.60;;;4.93;;
55292;SDS011;41157;53.560;10.098;2023-05-07T08:38:30;6.60;;;5.23;;
55292;SDS011;41157;53.560;10.098;2023-05-07T08:40:58;6.37;;;5.10;;
55292;SDS011;41157;53.560;10.098;2023-05-07T08:43:26;19.40;;;7.27;;
55292;SDS011;41157;53.560;10.098;2023-05-07T08:45:53;5.80;;;4.97;;
55292;SDS011;41157;53.560;10.098;2023-05-07T08:48:21;7.17;;;5.23;;
55292;SDS011;41157;53.560;10.098;2023-05-07T08:50:51;6.00;;;4.83;;
55292;SDS011;41157;53.560;10.098;2023-05-07T08:53:18;9.73;;;5.10;;
55292;SDS011;41157;53.560;10.098;2023-05-07T08:55:46;6.43;;;4.90;;
55292;SDS011;41157;53.560;10.098;2023-05-07T08:58:14;5.87;;;5.10;;
55292;SDS011;41157;53.560;10.098;2023-05-07T09:00:41;5.37;;;4.87;;
55292;SDS011;41157;53.560;10.098;2023-05-07T09:03:08;5.57;;;4.80;;
55292;SDS011;41157;53.560;10.098;2023-05-07T09:05:37;7.33;;;4.57;;
55292;SDS011;41157;53.560;10.098;2023-05-07T09:08:06;4.77;;;4.17;;
55292;SDS011;41157;53.560;10.098;2023-05-07T09:10:33;6.37;;;4.80;;
55292;SDS011;41157;53.560;10.098;2023-05-07T09:13:00;4.90;;;4.43;;
55292;SDS011;41157;53.560;10.098;2023-05-07T09:15:28;5.60;;;4.80;;
55292;SDS011;41157;53.560;10.098;2023-05-07T09:17:58;5.63;;;4.43;;
55292;SDS011;41157;53.560;10.098;2023-05-07T09:20:26;5.90;;;4.50;;
55292;SDS011;41157;53.560;10.098;2023-05-07T09:22:55;5.00;;;4.20;;
55292;SDS011;41157;53.560;10.098;2023-05-07T09:25:28;4.87;;;4.40;;
55292;SDS011;41157;53.560;10.098;2023-05-07T09:27:56;5.10;;;4.30;;
55292;SDS011;41157;53.560;10.098;2023-05-07T09:30:23;7.37;;;4.30;;
55292;SDS011;41157;53.560;10.098;2023-05-07T09:32:53;7.63;;;4.63;;
55292;SDS011;41157;53.560;10.098;2023-05-07T09:35:21;4.67;;;4.17;;
55292;SDS011;41157;53.560;10.098;2023-05-07T09:37:49;4.40;;;4.00;;
55292;SDS011;41157;53.560;10.098;2023-05-07T09:40:22;5.63;;;4.00;;
55292;SDS011;41157;53.560;10.098;2023-05-07T09:42:50;5.73;;;4.53;;
55292;SDS011;41157;53.560;10.098;2023-05-07T09:45:21;7.73;;;4.43;;
55292;SDS011;41157;53.560;10.098;2023-05-07T09:47:48;10.07;;;4.53;;
55292;SDS011;41157;53.560;10.098;2023-05-07T09:50:16;4.83;;;4.33;;
55292;SDS011;41157;53.560;10.098;2023-05-07T09:52:44;4.27;;;3.87;;
55292;SDS011;41157;53.560;10.098;2023-05-07T09:55:11;6.80;;;4.37;;
55292;SDS011;41157;53.560;10.098;2023-05-07T09:57:38;5.67;;;4.33;;
55292;SDS011;41157;53.560;10.098;2023-05-07T10:00:08;4.43;;;4.00;;
55292;SDS011;41157;53.560;10.098;2023-05-07T10:02:36;6.63;;;4.30;;
55292;SDS011;41157;53.560;10.098;2023-05-07T10:05:11;6.30;;;4.23;;
55292;SDS011;41157;53.560;10.098;2023-05-07T10:07:39;5.63;;;4.30;;
55292;SDS011;41157;53.560;10.098;2023-05-07T10:10:06;4.97;;;4.47;;
55292;SDS011;41157;53.560;10.098;2023-05-07T10:12:34;5.03;;;4.40;;
55292;SDS011;41157;53.560;10.098;2023-05-07T10:15:05;7.03;;;4.23;;
55292;SDS011;41157;53.560;10.098;2023-05-07T10:17:34;8.23;;;4.77;;
55292;SDS011;41157;53.560;10.098;2023-05-07T10:20:02;5.60;;;4.50;;
55292;SDS011;41157;53.560;10.098;2023-05-07T10:22:30;4.57;;;4.13;;
55292;SDS011;41157;53.560;10.098;2023-05-07T10:24:59;5.17;;;4.33;;
55292;SDS011;41157;53.560;10.098;2023-05-07T10:27:28;4.57;;;4.17;;
55292;SDS011;41157;53.560;10.098;2023-05-07T10:30:03;4.37;;;3.97;;
55292;SDS011;41157;53.560;10.098;2023-05-07T10:32:37;5.93;;;4.23;;
55292;SDS011;41157;53.560;10.098;2023-05-07T10:35:06;4.43;;;4.03;;
55292;SDS011;41157;53.560;10.098;2023-05-07T10:37:36;5.87;;;4.00;;
55292;SDS011;41157;53.560;10.098;2023-05-07T10:40:03;7.03;;;4.43;;
55292;SDS011;41157;53.560;10.098;2023-05-07T10:42:32;4.63;;;3.87;;
55292;SDS011;41157;53.560;10.098;2023-05-07T10:45:10;6.60;;;4.30;;
55292;SDS011;41157;53.560;10.098;2023-05-07T10:47:47;6.80;;;3.90;;
55292;SDS011;41157;53.560;10.098;2023-05-07T10:50:32;5.30;;;3.57;;
55292;SDS011;41157;53.560;10.098;2023-05-07T10:58:35;4.07;;;3.40;;
55292;SDS011;41157;53.560;10.098;2023-05-07T11:01:03;4.97;;;3.40;;
55292;SDS011;41157;53.560;10.098;2023-05-07T11:03:31;5.93;;;3.40;;
55292;SDS011;41157;53.560;10.098;2023-05-07T11:06:11;4.40;;;3.23;;
55292;SDS011;41157;53.560;10.098;2023-05-07T11:08:53;5.00;;;3.20;;
55292;SDS011;41157;53.560;10.098;2023-05-07T11:14:02;4.80;;;3.20;;
55292;SDS011;41157;53.560;10.098;2023-05-07T11:16:30;4.20;;;3.03;;
55292;SDS011;41157;53.560;10.098;2023-05-07T11:18:59;3.57;;;3.20;;
55292;SDS011;41157;53.560;10.098;2023-05-07T11:21:33;4.13;;;2.73;;
55292;SDS011;41157;53.560;10.098;2023-05-07T11:24:01;3.70;;;3.40;;
55292;SDS011;41157;53.560;10.098;2023-05-07T11:26:29;3.73;;;3.40;;
55292;SDS011;41157;53.560;10.098;2023-05-07T11:28:57;3.57;;;3.23;;
55292;SDS011;41157;53.560;10.098;2023-05-07T11:31:26;3.10;;;2.80;;
55292;SDS011;41157;53.560;10.098;2023-05-07T11:33:54;3.67;;;2.67;;
55292;SDS011;41157;53.560;10.098;2023-05-07T11:36:23;3.07;;;2.60;;
55292;SDS011;41157;53.560;10.098;2023-05-07T11:38:51;4.50;;;3.10;;
55292;SDS011;41157;53.560;10.098;2023-05-07T11:41:19;2.93;;;2.60;;
55292;SDS011;41157;53.560;10.098;2023-05-07T11:43:53;3.10;;;2.90;;
55292;SDS011;41157;53.560;10.098;2023-05-07T11:46:20;6.47;;;3.07;;
55292;SDS011;41157;53.560;10.098;2023-05-07T11:48:48;3.23;;;2.70;;
55292;SDS011;41157;53.560;10.098;2023-05-07T11:51:18;3.17;;;2.50;;
55292;SDS011;41157;53.560;10.098;2023-05-07T11:53:46;5.50;;;3.07;;
55292;SDS011;41157;53.560;10.098;2023-05-07T11:56:15;2.70;;;2.50;;
55292;SDS011;41157;53.560;10.098;2023-05-07T11:58:43;3.10;;;2.53;;
55292;SDS011;41157;53.560;10.098;2023-05-07T12:01:10;2.80;;;2.60;;
55292;SDS011;41157;53.560;10.098;2023-05-07T12:03:39;3.40;;;2.50;;
55292;SDS011;41157;53.560;10.098;2023-05-07T12:06:07;2.87;;;2.43;;
55292;SDS011;41157;53.560;10.098;2023-05-07T12:08:36;6.70;;;2.40;;
55292;SDS011;41157;53.560;10.098;2023-05-07T12:11:05;2.87;;;2.57;;
55292;SDS011;41157;53.560;10.098;2023-05-07T12:13:33;3.40;;;2.20;;
55292;SDS011;41157;53.560;10.098;2023-05-07T12:16:00;3.20;;;2.47;;
55292;SDS011;41157;53.560;10.098;2023-05-07T12:18:29;2.40;;;2.20;;
55292;SDS011;41157;53.560;10.098;2023-05-07T12:20:56;2.43;;;2.23;;
55292;SDS011;41157;53.560;10.098;2023-05-07T12:23:23;2.43;;;2.17;;
55292;SDS011;41157;53.560;10.098;2023-05-07T12:25:50;3.03;;;2.20;;
55292;SDS011;41157;53.560;10.098;2023-05-07T12:28:19;2.20;;;2.00;;
55292;SDS011;41157;53.560;10.098;2023-05-07T12:30:47;2.07;;;1.97;;
55292;SDS011;41157;53.560;10.098;2023-05-07T12:33:16;2.40;;;2.20;;
55292;SDS011;41157;53.560;10.098;2023-05-07T12:35:43;2.10;;;2.00;;
55292;SDS011;41157;53.560;10.098;2023-05-07T12:38:11;3.00;;;2.20;;
55292;SDS011;41157;53.560;10.098;2023-05-07T12:40:39;2.17;;;1.97;;
55292;SDS011;41157;53.560;10.098;2023-05-07T12:43:06;3.30;;;2.00;;
55292;SDS011;41157;53.560;10.098;2023-05-07T12:45:37;2.20;;;2.00;;
55292;SDS011;41157;53.560;10.098;2023-05-07T12:48:05;3.30;;;2.10;;
55292;SDS011;41157;53.560;10.098;2023-05-07T12:50:32;2.23;;;1.93;;
55292;SDS011;41157;53.560;10.098;2023-05-07T12:52:59;3.00;;;2.20;;
55292;SDS011;41157;53.560;10.098;2023-05-07T12:55:28;2.10;;;1.90;;
55292;SDS011;41157;53.560;10.098;2023-05-07T12:57:55;2.27;;;2.07;;
55292;SDS011;41157;53.560;10.098;2023-05-07T13:00:33;2.33;;;1.87;;
55292;SDS011;41157;53.560;10.098;2023-05-07T13:03:01;2.03;;;1.83;;
55292;SDS011;41157;53.560;10.098;2023-05-07T13:05:28;2.10;;;1.83;;
55292;SDS011;41157;53.560;10.098;2023-05-07T13:07:56;3.33;;;1.83;;
55292;SDS011;41157;53.560;10.098;2023-05-07T13:10:23;2.00;;;1.73;;
55292;SDS011;41157;53.560;10.098;2023-05-07T13:12:50;2.70;;;1.97;;
55292;SDS011;41157;53.560;10.098;2023-05-07T13:15:17;3.07;;;1.90;;
55292;SDS011;41157;53.560;10.098;2023-05-07T13:17:44;3.07;;;2.00;;
55292;SDS011;41157;53.560;10.098;2023-05-07T13:20:13;2.57;;;2.30;;
55292;SDS011;41157;53.560;10.098;2023-05-07T13:22:40;1.90;;;1.80;;
55292;SDS011;41157;53.560;10.098;2023-05-07T13:25:07;2.40;;;1.83;;
55292;SDS011;41157;53.560;10.098;2023-05-07T13:27:34;2.13;;;1.70;;
55292;SDS011;41157;53.560;10.098;2023-05-07T13:30:02;2.60;;;1.87;;
55292;SDS011;41157;53.560;10.098;2023-05-07T13:32:32;1.97;;;1.87;;
55292;SDS011;41157;53.560;10.098;2023-05-07T13:35:00;2.63;;;1.60;;
55292;SDS011;41157;53.560;10.098;2023-05-07T13:37:28;2.27;;;1.73;;
55292;SDS011;41157;53.560;10.098;2023-05-07T13:39:55;2.77;;;1.80;;
55292;SDS011;41157;53.560;10.098;2023-05-07T13:42:22;3.50;;;1.90;;
55292;SDS011;41157;53.560;10.098;2023-05-07T13:44:49;3.00;;;1.90;;
55292;SDS011;41157;53.560;10.098;2023-05-07T13:47:16;4.18;;;2.03;;
55292;SDS011;41157;53.560;10.098;2023-05-07T13:49:43;1.80;;;1.70;;
55292;SDS011;41157;53.560;10.098;2023-05-07T13:52:10;1.88;;;1.77;;
55292;SDS011;41157;53.560;10.098;2023-05-07T13:54:39;2.88;;;1.83;;
55292;SDS011;41157;53.560;10.098;2023-05-07T13:57:06;2.95;;;1.83;;
55292;SDS011;41157;53.560;10.098;2023-05-07T13:59:33;1.90;;;1.70;;
55292;SDS011;41157;53.560;10.098;2023-05-07T14:02:00;3.17;;;1.90;;
55292;SDS011;41157;53.560;10.098;2023-05-07T14:04:27;2.90;;;1.88;;
55292;SDS011;41157;53.560;10.098;2023-05-07T14:06:54;4.03;;;2.03;;
55292;SDS011;41157;53.560;10.098;2023-05-07T14:09:21;1.75;;;1.65;;
55292;SDS011;41157;53.560;10.098;2023-05-07T14:11:50;2.17;;;1.63;;
55292;SDS011;41157;53.560;10.098;2023-05-07T14:14:17;1.83;;;1.73;;
55292;SDS011;41157;53.560;10.098;2023-05-07T14:16:44;2.78;;;1.83;;
55292;SDS011;41157;53.560;10.098;2023-05-07T14:19:11;2.42;;;1.73;;
55292;SDS011;41157;53.560;10.098;2023-05-07T14:21:39;1.90;;;1.70;;
55292;SDS011;41157;53.560;10.098;2023-05-07T14:24:06;2.20;;;2.00;;
55292;SDS011;41157;53.560;10.098;2023-05-07T14:26:33;10.43;;;1.75;;
55292;SDS011;41157;53.560;10.098;2023-05-07T14:29:02;2.42;;;2.03;;
55292;SDS011;41157;53.560;10.098;2023-05-07T14:31:29;1.88;;;1.73;;
55292;SDS011;41157;53.560;10.098;2023-05-07T14:33:56;1.92;;;1.80;;
55292;SDS011;41157;53.560;10.098;2023-05-07T14:36:24;1.98;;;1.88;;
55292;SDS011;41157;53.560;10.098;2023-05-07T14:38:52;1.90;;;1.80;;
55292;SDS011;41157;53.560;10.098;2023-05-07T14:41:19;1.63;;;1.52;;
55292;SDS011;41157;53.560;10.098;2023-05-07T14:43:47;1.65;;;1.55;;